createdAt,value
2019-04-06T00:01:48.819Z,105.73
2019-04-06T00:04:18.733Z,104.33
2019-04-06T00:06:48.331Z,108.67
2019-04-06T00:09:17.971Z,104.80
2019-04-06T00:11:47.632Z,106.90
2019-04-06T00:14:17.121Z,105.00
2019-04-06T00:16:46.614Z,112.17
2019-04-06T00:19:16.129Z,106.10
2019-04-06T00:21:45.606Z,107.13
2019-04-06T00:24:15.663Z,107.07
2019-04-06T00:26:45.571Z,101.80
2019-04-06T00:29:15.173Z,107.97
2019-04-06T00:31:46.393Z,107.47
2019-04-06T00:34:16.019Z,107.50
2019-04-06T00:36:45.631Z,106.30
2019-04-06T00:39:15.197Z,107.00
2019-04-06T00:41:44.720Z,105.57
2019-04-06T00:44:16.705Z,111.23
2019-04-06T00:46:45.592Z,104.53
2019-04-06T00:49:15.578Z,111.33
2019-04-06T00:51:45.213Z,110.67
2019-04-06T00:54:16.221Z,108.17
2019-04-06T00:56:46.084Z,109.40
2019-04-06T00:59:15.963Z,102.97
2019-04-06T01:01:45.859Z,110.33
2019-04-06T01:04:15.368Z,109.70
2019-04-06T01:06:44.947Z,103.57
2019-04-06T01:09:14.587Z,112.37
2019-04-06T01:11:44.121Z,108.50
2019-04-06T01:14:13.676Z,113.33
2019-04-06T01:16:43.244Z,108.37
2019-04-06T01:19:13.193Z,110.73
2019-04-06T01:21:42.840Z,111.33
2019-04-06T01:24:12.609Z,107.60
2019-04-06T01:26:42.167Z,113.23
2019-04-06T01:29:11.663Z,110.77
2019-04-06T01:31:41.192Z,107.23
2019-04-06T01:34:10.907Z,114.50
2019-04-06T01:36:40.416Z,111.57
2019-04-06T01:39:09.991Z,105.57
2019-04-06T01:41:39.550Z,108.50
2019-04-06T01:44:09.146Z,109.33
2019-04-06T01:46:38.790Z,105.53
2019-04-06T01:49:08.317Z,102.60
2019-04-06T01:51:37.867Z,111.37
2019-04-06T01:54:07.409Z,119.17
2019-04-06T01:56:37.353Z,112.37
2019-04-06T01:59:06.831Z,112.80
2019-04-06T02:01:43.700Z,107.20
2019-04-06T02:04:13.204Z,109.03
2019-04-06T02:06:42.801Z,110.30
2019-04-06T02:09:12.382Z,108.17
2019-04-06T02:11:41.916Z,114.90
2019-04-06T02:14:11.399Z,110.93
2019-04-06T02:16:41.048Z,111.73
2019-04-06T02:19:10.934Z,115.70
2019-04-06T02:21:40.429Z,113.43
2019-04-06T02:24:10.358Z,109.47
2019-04-06T02:26:39.901Z,115.70
2019-04-06T02:29:09.371Z,112.70
2019-04-06T02:31:40.502Z,114.03
2019-04-06T02:34:11.616Z,112.20
2019-04-06T02:36:51.753Z,118.43
2019-04-06T02:39:23.218Z,111.90
2019-04-06T02:41:54.324Z,119.17
2019-04-06T02:44:23.835Z,121.03
2019-04-06T02:46:53.358Z,115.97
2019-04-06T02:49:22.995Z,115.77
2019-04-06T02:51:52.543Z,116.80
2019-04-06T02:54:22.057Z,123.67
2019-04-06T02:56:51.650Z,121.83
2019-04-06T02:59:21.188Z,120.43
2019-04-06T03:01:50.839Z,119.60
2019-04-06T03:04:20.660Z,118.03
2019-04-06T03:06:50.138Z,122.33
2019-04-06T03:09:19.618Z,117.83
2019-04-06T03:11:49.174Z,124.50
2019-04-06T03:14:19.000Z,125.90
2019-04-06T03:16:48.452Z,120.03
2019-04-06T03:19:18.414Z,122.73
2019-04-06T03:21:48.250Z,122.30
2019-04-06T03:24:17.844Z,125.07
2019-04-06T03:26:59.788Z,125.73
2019-04-06T03:29:18.992Z,127.83
2019-04-06T03:31:48.541Z,130.30
2019-04-06T03:34:21.002Z,123.73
2019-04-06T03:36:49.743Z,121.80
2019-04-06T03:39:19.239Z,134.83
2019-04-06T03:41:48.752Z,126.77
2019-04-06T03:44:18.790Z,131.87
2019-04-06T03:46:48.289Z,129.47
2019-04-06T03:49:17.731Z,128.37
2019-04-06T03:51:47.174Z,124.37
2019-04-06T03:54:16.611Z,122.40
2019-04-06T03:56:46.408Z,125.17
2019-04-06T03:59:15.832Z,122.43
2019-04-06T04:01:45.274Z,122.80
2019-04-06T04:04:14.710Z,124.03
2019-04-06T04:06:44.160Z,125.13
2019-04-06T04:09:13.609Z,128.60
2019-04-06T04:11:43.042Z,127.77
2019-04-06T04:14:12.535Z,115.73
2019-04-06T04:16:41.969Z,120.83
2019-04-06T04:19:11.470Z,126.77
2019-04-06T04:21:40.881Z,125.50
2019-04-06T04:24:10.479Z,116.40
2019-04-06T04:26:39.895Z,119.97
2019-04-06T04:29:09.300Z,129.97
2019-04-06T04:31:38.711Z,120.40
2019-04-06T04:34:08.147Z,118.63
2019-04-06T04:36:37.586Z,127.50
2019-04-06T04:39:09.069Z,118.73
2019-04-06T04:41:39.896Z,122.37
2019-04-06T04:44:09.660Z,124.33
2019-04-06T04:46:39.112Z,118.80
2019-04-06T04:49:08.527Z,124.70
2019-04-06T04:51:37.975Z,122.70
2019-04-06T04:54:07.392Z,134.07
2019-04-06T04:56:36.806Z,120.73
2019-04-06T04:59:06.557Z,125.10
2019-04-06T05:01:36.118Z,123.57
2019-04-06T05:04:05.568Z,126.30
2019-04-06T05:06:35.330Z,132.87
2019-04-06T05:09:07.074Z,129.30
2019-04-06T05:11:36.500Z,124.87
2019-04-06T05:14:58.446Z,127.70
2019-04-06T05:17:28.102Z,125.20
2019-04-06T05:19:57.842Z,125.50
2019-04-06T05:22:27.330Z,124.20
2019-04-06T05:24:57.366Z,128.83
2019-04-06T05:27:26.954Z,125.40
2019-04-06T05:29:56.522Z,134.07
2019-04-06T05:32:26.026Z,128.67
2019-04-06T05:34:58.007Z,132.37
2019-04-06T05:37:27.233Z,132.23
2019-04-06T05:39:56.826Z,124.87
2019-04-06T05:42:26.263Z,130.77
2019-04-06T05:44:55.692Z,135.70
2019-04-06T05:47:25.532Z,135.50
2019-04-06T05:49:55.134Z,134.23
2019-04-06T05:52:24.540Z,139.70
2019-04-06T05:54:53.927Z,125.90
2019-04-06T05:57:23.737Z,141.90
2019-04-06T05:59:53.178Z,140.40
2019-04-06T06:02:22.669Z,131.83
2019-04-06T06:04:52.096Z,126.70
2019-04-06T06:07:21.904Z,128.60
2019-04-06T06:09:51.469Z,132.67
2019-04-06T06:12:21.274Z,132.03
2019-04-06T06:14:50.815Z,130.70
2019-04-06T06:17:20.299Z,121.73
2019-04-06T06:19:49.783Z,128.23
2019-04-06T06:22:19.242Z,130.93
2019-04-06T06:24:48.714Z,126.80
2019-04-06T06:27:18.362Z,128.90
2019-04-06T06:29:47.917Z,125.63
2019-04-06T06:32:17.302Z,127.57
2019-04-06T06:34:46.757Z,126.20
2019-04-06T06:37:16.245Z,123.10
2019-04-06T06:39:45.678Z,120.87
2019-04-06T06:42:15.165Z,119.17
2019-04-06T06:44:44.609Z,116.53
2019-04-06T06:47:14.041Z,116.70
2019-04-06T06:49:43.465Z,117.33
2019-04-06T06:52:12.894Z,126.00
2019-04-06T06:54:42.344Z,118.63
2019-04-06T06:57:11.760Z,124.27
2019-04-06T06:59:41.207Z,116.03
2019-04-06T07:02:10.629Z,127.03
2019-04-06T07:04:40.081Z,127.90
2019-04-06T07:07:09.509Z,112.70
2019-04-06T07:09:38.933Z,109.83
2019-04-06T07:12:08.592Z,111.27
2019-04-06T07:14:38.082Z,109.17
2019-04-06T07:17:07.756Z,119.53
2019-04-06T07:19:37.218Z,111.83
2019-04-06T07:22:06.654Z,112.80
2019-04-06T07:24:36.102Z,111.93
2019-04-06T07:27:05.603Z,114.77
2019-04-06T07:29:35.099Z,106.83
2019-04-06T07:32:04.661Z,109.30
2019-04-06T07:34:34.623Z,100.70
2019-04-06T07:37:04.123Z,109.73
2019-04-06T07:39:33.535Z,111.37
2019-04-06T07:42:03.088Z,106.30
2019-04-06T07:44:32.541Z,101.40
2019-04-06T07:47:01.974Z,99.27
2019-04-06T07:49:31.407Z,106.20
2019-04-06T07:52:00.836Z,103.43
2019-04-06T07:54:30.284Z,100.27
2019-04-06T07:56:59.795Z,99.33
2019-04-06T07:59:29.511Z,101.93
2019-04-06T08:01:58.921Z,97.63
2019-04-06T08:04:28.338Z,97.17
2019-04-06T08:06:57.806Z,101.50
2019-04-06T08:09:27.238Z,88.13
2019-04-06T08:11:56.747Z,99.13
2019-04-06T08:14:26.179Z,89.47
2019-04-06T08:16:55.607Z,84.37
2019-04-06T08:19:25.503Z,84.53
2019-04-06T08:21:54.919Z,90.13
2019-04-06T08:24:24.361Z,86.80
2019-04-06T08:26:53.786Z,88.83
2019-04-06T08:29:23.199Z,91.83
2019-04-06T08:31:52.650Z,85.07
2019-04-06T08:34:22.080Z,84.93
2019-04-06T08:36:51.515Z,83.87
2019-04-06T08:39:21.193Z,82.37
2019-04-06T08:41:50.640Z,82.73
2019-04-06T08:44:20.237Z,71.47
2019-04-06T08:46:49.640Z,78.17
2019-04-06T08:49:19.083Z,79.30
2019-04-06T08:51:48.490Z,76.57
2019-04-06T08:54:17.930Z,79.23
2019-04-06T08:56:47.616Z,70.23
2019-04-06T08:59:17.097Z,67.17
2019-04-06T09:01:46.587Z,74.37
2019-04-06T09:04:16.017Z,69.70
2019-04-06T09:06:45.530Z,68.23
2019-04-06T09:09:14.942Z,78.40
2019-04-06T09:11:44.379Z,76.13
2019-04-06T09:14:13.962Z,76.10
2019-04-06T09:16:43.410Z,75.17
2019-04-06T09:19:13.244Z,63.80
2019-04-06T09:21:43.184Z,66.63
2019-04-06T09:24:12.632Z,73.27
2019-04-06T09:26:42.303Z,64.03
2019-04-06T09:29:22.465Z,57.00
2019-04-06T09:31:43.712Z,64.07
2019-04-06T09:34:13.299Z,62.90
2019-04-06T09:36:42.974Z,61.70
2019-04-06T09:39:12.373Z,51.30
2019-04-06T09:41:41.800Z,62.00
2019-04-06T09:44:12.875Z,59.73
2019-04-06T09:46:55.632Z,56.93
2019-04-06T09:49:42.864Z,51.50
2019-04-06T09:52:32.268Z,56.77
2019-04-06T09:55:03.382Z,52.87
2019-04-06T09:57:38.116Z,56.73
2019-04-06T10:00:11.041Z,57.37
2019-04-06T10:02:48.205Z,56.07
2019-04-06T10:05:19.668Z,53.73
2019-04-06T10:07:51.002Z,52.63
2019-04-06T10:10:25.190Z,48.43
2019-04-06T10:13:15.437Z,63.67
2019-04-06T10:16:03.131Z,57.13
2019-04-06T10:18:37.124Z,57.90
2019-04-06T10:21:24.542Z,54.03
2019-04-06T10:24:12.054Z,53.40
2019-04-06T10:26:46.045Z,52.90
2019-04-06T10:29:32.986Z,52.23
2019-04-06T10:32:12.931Z,58.93
2019-04-06T10:34:58.745Z,52.17
2019-04-06T10:37:38.629Z,56.03
2019-04-06T10:40:22.203Z,53.77
2019-04-06T10:42:53.270Z,52.33
2019-04-06T10:45:27.296Z,51.00
2019-04-06T10:48:01.283Z,54.07
2019-04-06T10:50:35.359Z,51.83
2019-04-06T10:53:21.482Z,52.23
2019-04-06T10:55:52.621Z,54.27
2019-04-06T10:58:23.695Z,54.40
2019-04-06T11:01:10.075Z,50.70
2019-04-06T11:03:41.253Z,48.43
2019-04-06T11:06:12.347Z,47.47
2019-04-06T11:08:59.875Z,40.43
2019-04-06T11:11:47.043Z,43.07
2019-04-06T11:14:18.118Z,43.00
2019-04-06T11:16:51.914Z,37.07
2019-04-06T11:19:37.724Z,41.27
2019-04-06T11:22:18.273Z,43.80
2019-04-06T11:25:04.116Z,44.97
2019-04-06T11:27:41.003Z,47.43
2019-04-06T11:30:15.493Z,46.10
2019-04-06T11:32:46.805Z,48.93
2019-04-06T11:35:35.827Z,47.97
2019-04-06T11:38:16.044Z,45.37
2019-04-06T11:40:53.038Z,47.53
2019-04-06T11:43:36.612Z,49.93
2019-04-06T11:46:10.902Z,53.00
2019-04-06T11:48:58.206Z,49.57
2019-04-06T11:51:45.237Z,48.33
2019-04-06T11:54:25.681Z,52.00
2019-04-06T11:56:59.713Z,48.60
2019-04-06T11:59:48.908Z,47.00
2019-04-06T12:02:25.597Z,46.57
2019-04-06T12:05:12.623Z,41.00
2019-04-06T12:07:55.715Z,44.73
2019-04-06T12:10:26.777Z,49.23
2019-04-06T12:12:58.218Z,46.97
2019-04-06T12:15:34.915Z,49.00
2019-04-06T12:18:17.507Z,47.57
2019-04-06T12:20:59.374Z,51.40
2019-04-06T12:23:33.811Z,47.10
2019-04-06T12:26:10.892Z,50.13
2019-04-06T12:28:50.796Z,46.27
2019-04-06T12:31:30.639Z,44.40
2019-04-06T12:34:04.202Z,42.50
2019-04-06T12:36:41.351Z,40.57
2019-04-06T12:39:15.083Z,37.50
2019-04-06T12:41:55.328Z,36.20
2019-04-06T12:44:42.276Z,39.67
2019-04-06T12:47:16.478Z,37.53
2019-04-06T12:49:56.674Z,33.77
2019-04-06T12:52:44.001Z,36.47
2019-04-06T12:55:15.119Z,37.67
2019-04-06T12:57:55.594Z,37.13
2019-04-06T13:00:32.336Z,37.70
2019-04-06T13:03:19.981Z,34.90
2019-04-06T13:05:54.237Z,32.60
2019-04-06T13:08:25.339Z,36.73
2019-04-06T13:10:56.411Z,35.00
2019-04-06T13:13:42.643Z,32.40
2019-04-06T13:16:16.523Z,31.20
2019-04-06T13:19:03.568Z,30.80
2019-04-06T13:21:34.663Z,30.50
2019-04-06T13:24:05.730Z,28.37
2019-04-06T13:26:46.064Z,30.27
2019-04-06T13:29:17.532Z,32.00
2019-04-06T13:31:48.574Z,32.23
2019-04-06T13:34:19.671Z,33.63
2019-04-06T13:36:53.563Z,30.00
2019-04-06T13:39:24.659Z,31.07
2019-04-06T13:41:58.129Z,28.97
2019-04-06T13:44:45.414Z,32.43
2019-04-06T13:47:25.566Z,31.77
2019-04-06T13:50:05.825Z,32.10
2019-04-06T13:52:36.879Z,32.93
2019-04-06T13:55:15.326Z,32.60
2019-04-06T13:57:52.581Z,30.63
2019-04-06T14:00:35.488Z,31.73
2019-04-06T14:03:09.210Z,31.80
2019-04-06T14:05:42.984Z,28.57
2019-04-06T14:08:25.903Z,27.67
2019-04-06T14:11:12.083Z,25.43
2019-04-06T14:13:49.301Z,26.33
2019-04-06T14:16:20.410Z,23.77
2019-04-06T14:19:06.196Z,22.23
2019-04-06T14:21:37.446Z,24.57
2019-04-06T14:24:14.374Z,26.40
2019-04-06T14:27:01.905Z,25.20
2019-04-06T14:29:36.122Z,22.27
2019-04-06T14:32:10.230Z,24.07
2019-04-06T14:34:50.345Z,25.93
2019-04-06T14:37:33.315Z,22.77
2019-04-06T14:40:10.647Z,22.87
2019-04-06T14:42:58.205Z,24.10
2019-04-06T14:45:29.272Z,25.07
2019-04-06T14:48:03.048Z,24.67
2019-04-06T14:50:34.211Z,22.93
2019-04-06T14:53:08.104Z,21.60
2019-04-06T14:55:45.019Z,23.00
2019-04-06T14:58:25.117Z,20.90
2019-04-06T15:01:05.700Z,22.30
2019-04-06T15:03:52.894Z,22.30
2019-04-06T15:06:39.287Z,23.97
2019-04-06T15:09:15.337Z,22.07
2019-04-06T15:11:52.242Z,26.47
2019-04-06T15:14:39.469Z,22.83
2019-04-06T15:17:10.640Z,21.87
2019-04-06T15:19:53.630Z,22.77
2019-04-06T15:22:36.958Z,22.33
2019-04-06T15:25:09.109Z,23.80
2019-04-06T15:27:56.303Z,24.93
2019-04-06T15:30:29.859Z,21.77
2019-04-06T15:33:18.643Z,20.20
2019-04-06T15:35:55.730Z,23.10
2019-04-06T15:38:44.992Z,21.80
2019-04-06T15:41:34.272Z,19.53
2019-04-06T15:44:05.335Z,19.97
2019-04-06T15:46:42.496Z,20.43
2019-04-06T15:49:25.563Z,19.53
2019-04-06T15:52:14.386Z,22.23
2019-04-06T15:54:46.641Z,20.07
2019-04-06T15:57:17.746Z,19.27
2019-04-06T15:59:54.611Z,21.40
2019-04-06T16:02:41.999Z,25.63
2019-04-06T16:05:13.255Z,24.83
2019-04-06T16:07:53.409Z,22.00
2019-04-06T16:10:40.694Z,23.77
2019-04-06T16:13:26.883Z,22.93
2019-04-06T16:16:01.145Z,23.10
2019-04-06T16:18:32.676Z,22.80
2019-04-06T16:21:19.847Z,25.57
2019-04-06T16:24:02.247Z,23.67
2019-04-06T16:26:26.377Z,25.77
2019-04-06T16:29:06.733Z,23.00
2019-04-06T16:31:50.017Z,24.20
2019-04-06T16:34:39.721Z,24.10
2019-04-06T16:37:11.042Z,25.57
2019-04-06T16:39:42.188Z,25.83
2019-04-06T16:42:16.120Z,27.33
2019-04-06T16:44:56.112Z,26.47
2019-04-06T16:47:39.360Z,29.07
2019-04-06T16:50:26.986Z,30.50
2019-04-06T16:53:06.534Z,26.67
2019-04-06T16:55:40.688Z,27.10
2019-04-06T16:58:20.949Z,28.40
2019-04-06T17:00:52.134Z,27.67
2019-04-06T17:03:41.070Z,27.17
2019-04-06T17:06:12.136Z,25.37
2019-04-06T17:08:43.606Z,26.07
2019-04-06T17:11:20.787Z,28.63
2019-04-06T17:14:03.981Z,27.90
2019-04-06T17:16:51.293Z,31.37
2019-04-06T17:19:40.407Z,29.63
2019-04-06T17:22:20.531Z,28.73
2019-04-06T17:24:57.307Z,28.97
2019-04-06T17:27:28.423Z,30.37
2019-04-06T17:30:08.881Z,30.57
2019-04-06T17:32:46.034Z,28.97
2019-04-06T17:35:20.789Z,31.83
2019-04-06T17:37:54.330Z,29.30
2019-04-06T17:40:25.450Z,31.03
2019-04-06T17:43:14.940Z,31.50
2019-04-06T17:46:03.269Z,30.37
2019-04-06T17:48:40.686Z,28.23
2019-04-06T17:51:14.471Z,32.13
2019-04-06T17:53:45.849Z,28.77
2019-04-06T17:56:17.318Z,31.83
2019-04-06T17:59:05.115Z,31.30
2019-04-06T18:01:52.888Z,32.37
2019-04-06T18:04:41.754Z,35.27
2019-04-06T18:07:21.631Z,30.20
2019-04-06T18:10:09.055Z,33.93
2019-04-06T18:12:48.896Z,33.47
2019-04-06T18:15:18.794Z,29.93
2019-04-06T18:17:48.692Z,36.63
2019-04-06T18:20:18.460Z,35.70
2019-04-06T18:22:48.324Z,38.30
2019-04-06T18:25:18.301Z,33.53
2019-04-06T18:27:48.272Z,40.00
2019-04-06T18:30:18.999Z,39.90
2019-04-06T18:33:08.293Z,37.73
2019-04-06T18:35:38.293Z,36.80
2019-04-06T18:38:24.644Z,39.23
2019-04-06T18:40:54.635Z,39.00
2019-04-06T18:43:25.113Z,40.17
2019-04-06T18:45:54.666Z,38.57
2019-04-06T18:48:24.099Z,39.10
2019-04-06T18:50:53.532Z,37.97
2019-04-06T18:53:22.973Z,39.40
2019-04-06T18:55:52.594Z,40.43
2019-04-06T18:58:38.046Z,38.70
2019-04-06T19:01:04.627Z,44.07
2019-04-06T19:03:34.209Z,44.13
2019-04-06T19:06:03.788Z,38.43
2019-04-06T19:08:33.248Z,43.37
2019-04-06T19:11:02.752Z,41.93
2019-04-06T19:13:32.218Z,45.53
2019-04-06T19:16:01.720Z,45.97
2019-04-06T19:18:31.148Z,41.97
2019-04-06T19:21:00.616Z,41.83
2019-04-06T19:23:30.046Z,42.00
2019-04-06T19:25:59.554Z,40.77
2019-04-06T19:28:29.064Z,38.03
2019-04-06T19:30:58.621Z,41.10
2019-04-06T19:33:28.401Z,43.37
2019-04-06T19:35:57.839Z,43.93
2019-04-06T19:38:27.383Z,46.43
2019-04-06T19:40:56.838Z,40.10
2019-04-06T19:43:27.669Z,48.37
2019-04-06T19:45:57.625Z,37.33
2019-04-06T19:48:27.221Z,46.30
2019-04-06T19:50:58.970Z,54.50
2019-04-06T19:53:29.000Z,48.80
2019-04-06T19:55:58.565Z,52.80
2019-04-06T19:58:30.998Z,55.73
2019-04-06T20:01:01.719Z,55.30
2019-04-06T20:03:36.518Z,47.20
2019-04-06T20:06:02.718Z,44.40
2019-04-06T20:08:32.269Z,44.43
2019-04-06T20:11:01.986Z,48.70
2019-04-06T20:13:32.026Z,45.17
2019-04-06T20:16:02.103Z,43.90
2019-04-06T20:18:31.647Z,42.93
2019-04-06T20:21:01.057Z,50.70
2019-04-06T20:23:30.487Z,46.87
2019-04-06T20:25:59.919Z,46.57
2019-04-06T20:28:29.838Z,45.40
2019-04-06T20:30:59.324Z,43.00
2019-04-06T20:33:28.786Z,45.70
2019-04-06T20:35:58.670Z,50.57
2019-04-06T20:38:28.292Z,48.63
2019-04-06T20:40:57.913Z,47.20
2019-04-06T20:43:27.603Z,46.90
2019-04-06T20:45:57.569Z,42.77
2019-04-06T20:48:27.031Z,45.60
2019-04-06T20:50:56.457Z,49.47
2019-04-06T20:53:25.930Z,47.00
2019-04-06T20:55:55.343Z,45.17
2019-04-06T20:58:25.061Z,48.37
2019-04-06T21:00:54.549Z,55.30
2019-04-06T21:03:24.326Z,50.33
2019-04-06T21:05:53.961Z,50.80
2019-04-06T21:08:23.382Z,48.30
2019-04-06T21:10:53.294Z,50.73
2019-04-06T21:13:23.414Z,52.40
2019-04-06T21:15:52.806Z,50.63
2019-04-06T21:18:22.259Z,49.43
2019-04-06T21:20:51.737Z,46.20
2019-04-06T21:23:21.797Z,49.07
2019-04-06T21:25:52.870Z,45.57
2019-04-06T21:28:22.367Z,42.27
2019-04-06T21:30:52.224Z,46.00
2019-04-06T21:33:22.079Z,45.87
2019-04-06T21:35:51.686Z,42.80
2019-04-06T21:38:21.738Z,45.70
2019-04-06T21:40:51.884Z,48.20
2019-04-06T21:43:22.312Z,47.43
2019-04-06T21:45:52.123Z,48.37
2019-04-06T21:48:22.416Z,46.97
2019-04-06T21:50:52.045Z,51.80
2019-04-06T21:53:21.581Z,52.73
2019-04-06T21:56:00.877Z,48.63
2019-04-06T21:58:22.188Z,45.40
2019-04-06T22:00:55.073Z,46.87
2019-04-06T22:03:24.718Z,46.97
2019-04-06T22:05:54.229Z,53.80
2019-04-06T22:08:23.651Z,50.00
2019-04-06T22:10:53.082Z,49.93
2019-04-06T22:13:22.570Z,50.50
2019-04-06T22:15:51.985Z,52.50
2019-04-06T22:18:22.057Z,53.73
2019-04-06T22:20:51.529Z,53.63
2019-04-06T22:23:21.049Z,54.10
2019-04-06T22:25:50.577Z,55.83
2019-04-06T22:28:19.963Z,57.60
2019-04-06T22:30:49.698Z,53.53
2019-04-06T22:33:19.750Z,59.80
2019-04-06T22:35:49.178Z,56.93
2019-04-06T22:38:18.777Z,60.03
2019-04-06T22:40:48.550Z,62.63
2019-04-06T22:43:18.030Z,54.10
2019-04-06T22:45:47.445Z,56.27
2019-04-06T22:48:17.398Z,59.50
2019-04-06T22:50:47.432Z,48.97
2019-04-06T22:53:17.208Z,50.40
2019-04-06T22:55:46.769Z,55.47
2019-04-06T22:58:16.179Z,58.03
2019-04-06T23:00:53.070Z,50.47
2019-04-06T23:03:32.900Z,60.30
2019-04-06T23:06:04.083Z,62.47
2019-04-06T23:08:33.868Z,56.53
2019-04-06T23:11:03.560Z,57.43
2019-04-06T23:13:33.390Z,59.27
2019-04-06T23:16:02.836Z,61.10
2019-04-06T23:18:32.273Z,56.33
2019-04-06T23:21:01.683Z,57.30
2019-04-06T23:23:31.379Z,57.63
2019-04-06T23:26:01.227Z,57.13
2019-04-06T23:28:30.662Z,60.40
2019-04-06T23:31:00.268Z,57.83
2019-04-06T23:33:30.256Z,60.27
2019-04-06T23:35:59.760Z,58.97
2019-04-06T23:38:29.344Z,62.93
2019-04-06T23:40:59.060Z,59.33
2019-04-06T23:43:29.006Z,55.00
2019-04-06T23:45:59.021Z,63.87
2019-04-06T23:48:28.516Z,62.00
2019-04-06T23:50:58.477Z,60.63
2019-04-06T23:53:27.950Z,62.47
2019-04-06T23:55:57.667Z,64.77
2019-04-06T23:58:27.109Z,62.83
